Time,TemperatureF,DewpointF,PressureIn,WindDirection,WindDirectionDegrees,WindSpeedMPH,WindSpeedGustMPH,Humidity,HourlyPrecipIn,Conditions,Clouds,dailyrainin,SoftwareType,DateUTC
2013-06-16 00:00:00,66.0,45.1,29.81,WSW,247,0.0,5.0,47,0.00,,,0.00,Weather View 32 v70,2013-06-16 07:00:00,
2013-06-16 00:30:00,65.0,48.4,29.81,WNW,292,0.0,0.0,55,0.00,,,0.00,Weather View 32 v70,2013-06-16 07:30:00,
2013-06-16 01:00:00,65.0,51.6,29.81,WNW,292,2.0,6.0,62,0.00,,,0.00,Weather View 32 v70,2013-06-16 08:00:00,
2013-06-16 01:30:00,64.0,52.8,29.81,WNW,292,2.0,7.0,67,0.00,,,0.00,Weather View 32 v70,2013-06-16 08:30:00,
2013-06-16 02:00:00,64.0,54.8,29.81,NW,315,4.0,7.0,72,0.00,,,0.00,Weather View 32 v70,2013-06-16 09:00:00,
2013-06-16 02:30:00,64.0,54.8,29.82,WNW,292,6.0,9.0,72,0.00,,,0.00,Weather View 32 v70,2013-06-16 09:30:00,
2013-06-16 03:00:00,63.0,54.2,29.82,NW,315,2.0,9.0,73,0.00,,,0.00,Weather View 32 v70,2013-06-16 10:00:00,
2013-06-16 03:30:00,61.0,54.4,29.81,WNW,292,0.0,9.0,79,0.00,,,0.00,Weather View 32 v70,2013-06-16 10:30:00,
2013-06-16 04:00:00,59.0,55.4,29.81,WNW,292,0.0,4.0,88,0.00,,,0.00,Weather View 32 v70,2013-06-16 11:00:00,
2013-06-16 04:30:00,58.0,54.5,29.81,WNW,292,0.0,4.0,88,0.00,,,0.00,Weather View 32 v70,2013-06-16 11:30:00,
2013-06-16 05:00:00,56.0,52.2,29.82,WNW,292,0.0,4.0,87,0.00,,,0.00,Weather View 32 v70,2013-06-16 12:00:00,
2013-06-16 05:30:00,55.0,51.8,29.82,WNW,292,0.0,0.0,89,0.00,,,0.00,Weather View 32 v70,2013-06-16 12:30:00,
2013-06-16 06:00:00,55.0,29.2,29.83,SSE,157,0.0,0.0,37,0.00,,,0.00,Weather View 32 v70,2013-06-16 13:00:00,
2013-06-16 06:30:00,58.0,41.4,29.85,SSE,157,0.0,0.0,54,0.00,,,0.00,Weather View 32 v70,2013-06-16 13:30:00,
2013-06-16 07:00:00,62.0,57.1,29.89,SSE,157,0.0,0.0,84,0.00,,,0.00,Weather View 32 v70,2013-06-16 14:00:00,
2013-06-16 07:30:00,67.0,61.0,29.92,ESE,112,0.0,0.0,81,0.00,,,0.00,Weather View 32 v70,2013-06-16 14:30:00,
2013-06-16 08:00:00,68.0,60.1,29.95,SSE,157,2.0,6.0,76,0.00,,,0.00,Weather View 32 v70,2013-06-16 15:00:00,
2013-06-16 08:30:00,70.0,58.9,29.97,SW,225,3.0,8.0,68,0.00,,,0.00,Weather View 32 v70,2013-06-16 15:30:00,
2013-06-16 09:00:00,71.0,56.4,29.99,South,180,3.0,10.0,60,0.00,,,0.00,Weather View 32 v70,2013-06-16 16:00:00,
2013-06-16 09:30:00,74.0,55.7,29.99,SSE,157,7.0,10.0,53,0.00,,,0.00,Weather View 32 v70,2013-06-16 16:30:00,
2013-06-16 10:00:00,75.0,55.0,30.00,SSW,202,0.0,11.0,50,0.00,,,0.00,Weather View 32 v70,2013-06-16 17:00:00,
2013-06-16 10:30:00,77.0,55.7,30.01,WSW,247,1.0,11.0,48,0.00,,,0.00,Weather View 32 v70,2013-06-16 17:30:00,
2013-06-16 11:00:00,80.0,54.8,30.01,SSW,202,5.0,10.0,42,0.00,,,0.00,Weather View 32 v70,2013-06-16 18:00:00,
2013-06-16 11:30:00,82.0,55.2,30.01,SSW,202,4.0,10.0,40,0.00,,,0.00,Weather View 32 v70,2013-06-16 18:30:00,
2013-06-16 12:00:00,84.0,53.3,30.02,WSW,247,0.0,9.0,35,0.00,,,0.00,Weather View 32 v70,2013-06-16 19:00:00,
2013-06-16 12:30:00,85.0,54.2,30.02,WNW,292,0.0,9.0,35,0.00,,,0.00,Weather View 32 v70,2013-06-16 19:30:00,
2013-06-16 13:00:00,86.0,53.4,30.01,WSW,247,2.0,9.0,33,0.00,,,0.00,Weather View 32 v70,2013-06-16 20:00:00,
2013-06-16 13:30:00,87.0,50.8,30.00,West,270,2.0,10.0,29,0.00,,,0.00,Weather View 32 v70,2013-06-16 20:30:00,
2013-06-16 14:00:00,87.0,48.9,30.00,WNW,292,1.0,12.0,27,0.00,,,0.00,Weather View 32 v70,2013-06-16 21:00:00,
2013-06-16 14:30:00,89.0,48.5,29.99,WNW,292,4.0,12.0,25,0.00,,,0.00,Weather View 32 v70,2013-06-16 21:30:00,
2013-06-16 15:00:00,90.0,47.1,29.99,WNW,292,0.0,12.0,23,0.00,,,0.00,Weather View 32 v70,2013-06-16 22:00:00,
2013-06-16 15:30:00,89.0,45.1,29.99,NNW,337,0.0,12.0,22,0.00,,,0.00,Weather View 32 v70,2013-06-16 22:30:00,
2013-06-16 16:00:00,90.0,45.9,29.99,NNW,337,4.0,14.0,22,0.00,,,0.00,Weather View 32 v70,2013-06-16 23:00:00,
2013-06-16 16:30:00,89.0,43.9,29.98,West,270,6.0,16.0,21,0.00,,,0.00,Weather View 32 v70,2013-06-16 23:30:00,
2013-06-16 17:00:00,90.0,43.4,29.97,NW,315,15.0,16.0,20,0.00,,,0.00,Weather View 32 v70,2013-06-17 00:00:00,
2013-06-16 17:30:00,90.0,43.4,29.97,WNW,292,9.0,16.0,20,0.00,,,0.00,Weather View 32 v70,2013-06-17 00:30:00,
2013-06-16 18:00:00,89.0,45.1,29.96,WNW,292,7.0,16.0,22,0.00,,,0.00,Weather View 32 v70,2013-06-17 01:00:00,
2013-06-16 18:30:00,89.0,46.3,29.95,NNW,337,6.0,17.0,23,0.00,,,0.00,Weather View 32 v70,2013-06-17 01:30:00,
2013-06-16 19:00:00,88.0,48.7,29.96,WNW,292,7.0,17.0,26,0.00,,,0.00,Weather View 32 v70,2013-06-17 02:00:00,
2013-06-16 19:30:00,86.0,46.0,29.95,WNW,292,2.0,14.0,25,0.00,,,0.00,Weather View 32 v70,2013-06-17 02:30:00,
2013-06-16 20:00:00,83.0,49.2,29.95,WNW,292,0.0,13.0,31,0.00,,,0.00,Weather View 32 v70,2013-06-17 03:00:00,
2013-06-16 20:30:00,79.0,48.1,29.92,WNW,292,6.0,10.0,34,0.00,,,0.00,Weather View 32 v70,2013-06-17 03:30:00,
2013-06-16 21:00:00,77.0,47.9,29.91,WNW,292,2.0,10.0,36,0.00,,,0.00,Weather View 32 v70,2013-06-17 04:00:00,
2013-06-16 21:30:00,75.0,47.6,29.91,WNW,292,4.0,8.0,38,0.00,,,0.00,Weather View 32 v70,2013-06-17 04:30:00,
2013-06-16 22:00:00,74.0,45.3,29.92,NW,315,7.0,9.0,36,0.00,,,0.00,Weather View 32 v70,2013-06-17 05:00:00,
2013-06-16 22:01:00,74.0,45.3,29.92,NW,315,7.0,9.0,36,0.00,,,0.00,Weather View 32 v70,2013-06-17 05:01:00,
2013-06-16 22:30:00,74.0,46.7,29.93,NNW,337,0.0,13.0,38,0.00,,,0.00,Weather View 32 v70,2013-06-17 05:30:00,
2013-06-16 23:00:00,72.0,48.2,29.92,WNW,292,4.0,13.0,43,0.00,,,0.00,Weather View 32 v70,2013-06-17 06:00:00,
2013-06-16 23:02:00,72.0,48.2,29.92,WNW,292,4.0,13.0,43,0.00,,,0.00,Weather View 32 v70,2013-06-17 06:02:00,
2013-06-16 23:30:00,71.0,47.9,29.92,NW,315,4.0,9.0,44,0.00,,,0.00,Weather View 32 v70,2013-06-17 06:30:00,